Time;durP1;ratioP1;P1;durP2;ratioP2;P2;SDS_P1;SDS_P2;PMS_P1;PMS_P2;Temp;Humidity;BMP_temperature;BMP_pressure;BME280_temperature;BME280_humidity;BME280_pressure;Samples;Min_cycle;Max_cycle;Signal;HPM_P1;HPM_P2
2021/12/28 00:01:26;;;;;;;1.57;1.20;;;18.40;49.00;;;;;;5054846;28;20196;-23
2021/12/28 00:03:53;;;;;;;1.00;1.00;;;18.40;49.00;;;;;;5051984;28;20184;-22
2021/12/28 00:06:19;;;;;;;1.30;1.20;;;18.40;49.10;;;;;;5052967;28;20207;-22
2021/12/28 00:08:46;;;;;;;1.40;1.10;;;18.30;49.20;;;;;;5054919;28;20579;-26
2021/12/28 00:11:13;;;;;;;1.73;1.17;;;18.30;49.30;;;;;;5052516;28;20288;-23
2021/12/28 00:13:40;;;;;;;1.40;1.07;;;18.30;49.40;;;;;;5052676;28;20230;-22
2021/12/28 00:18:33;;;;;;;1.17;1.07;;;18.20;49.60;;;;;;5053393;28;20316;-25
2021/12/28 00:21:01;;;;;;;2.07;1.30;;;18.20;49.70;;;;;;5053773;28;20214;-24
2021/12/28 00:23:33;;;;;;;1.10;1.00;;;18.20;49.70;;;;;;5053402;28;20226;-23
2021/12/28 00:25:59;;;;;;;1.70;1.13;;;18.10;49.80;;;;;;5054275;28;20194;-25
2021/12/28 00:28:25;;;;;;;1.37;1.27;;;18.10;49.90;;;;;;5053277;28;20200;-22
2021/12/28 00:30:52;;;;;;;1.33;1.10;;;18.10;49.90;;;;;;5053589;28;20235;-22
2021/12/28 00:33:19;;;;;;;1.50;1.20;;;18.10;50.00;;;;;;5053048;28;20221;-23
2021/12/28 00:35:45;;;;;;;2.40;1.10;;;18.00;50.00;;;;;;5051954;28;20194;-24
2021/12/28 00:38:18;;;;;;;1.50;1.20;;;18.00;50.10;;;;;;5052025;28;20195;-23
2021/12/28 00:40:45;;;;;;;1.53;1.10;;;18.00;50.20;;;;;;5054624;28;20195;-24
2021/12/28 00:43:11;;;;;;;1.20;1.10;;;18.00;50.30;;;;;;5055114;28;20195;-22
2021/12/28 00:45:37;;;;;;;1.30;1.10;;;17.90;50.30;;;;;;5054195;28;20207;-23
2021/12/28 00:48:03;;;;;;;2.30;1.17;;;17.90;50.30;;;;;;5053632;28;20222;-24
2021/12/28 00:50:30;;;;;;;1.20;1.10;;;17.90;50.40;;;;;;5054449;28;20192;-24
2021/12/28 00:52:56;;;;;;;1.53;1.27;;;17.90;50.50;;;;;;5053622;28;20214;-23
2021/12/28 00:55:23;;;;;;;2.97;1.30;;;17.90;50.60;;;;;;5053193;28;20206;-24
2021/12/28 00:57:49;;;;;;;1.00;1.00;;;17.80;50.70;;;;;;5052990;28;20281;-22
2021/12/28 01:00:21;;;;;;;1.20;1.10;;;17.80;50.70;;;;;;5051606;28;20554;-24
2021/12/28 01:02:47;;;;;;;1.10;1.00;;;17.80;50.70;;;;;;5053171;28;20194;-22
2021/12/28 01:05:14;;;;;;;1.20;1.10;;;17.80;50.80;;;;;;5052798;28;20196;-22
2021/12/28 01:07:40;;;;;;;1.40;1.10;;;17.80;50.80;;;;;;5053390;28;20188;-23
2021/12/28 01:10:10;;;;;;;1.27;1.13;;;17.70;50.80;;;;;;5053473;28;20268;-23
2021/12/28 01:12:35;;;;;;;1.10;1.00;;;17.70;50.90;;;;;;5054737;28;20253;-24
2021/12/28 01:15:02;;;;;;;1.30;1.00;;;17.70;51.00;;;;;;5054638;28;20648;-24
2021/12/28 01:17:27;;;;;;;1.20;1.10;;;17.70;51.10;;;;;;5055937;28;20513;-22
2021/12/28 01:19:53;;;;;;;1.23;1.13;;;17.70;51.10;;;;;;5059703;28;20199;-23
2021/12/28 01:22:19;;;;;;;1.10;0.93;;;17.70;51.10;;;;;;5059486;28;20189;-24
2021/12/28 01:24:45;;;;;;;1.03;0.90;;;17.60;51.20;;;;;;5058136;28;20225;-22
2021/12/28 01:27:10;;;;;;;1.30;1.20;;;17.60;51.20;;;;;;5061192;28;20191;-22
2021/12/28 01:29:36;;;;;;;1.73;1.20;;;17.60;51.20;;;;;;5059609;28;20306;-24
2021/12/28 01:32:02;;;;;;;1.37;1.10;;;17.60;51.30;;;;;;5059763;28;20199;-22
2021/12/28 01:34:27;;;;;;;1.07;0.97;;;17.60;51.40;;;;;;5060420;28;20310;-23
2021/12/28 01:36:53;;;;;;;1.20;1.10;;;17.50;51.50;;;;;;5061336;28;20187;-23
2021/12/28 01:39:19;;;;;;;1.37;0.97;;;17.50;51.40;;;;;;5060801;28;20465;-23
2021/12/28 01:41:44;;;;;;;1.17;1.00;;;17.50;51.50;;;;;;5059394;28;20195;-27
2021/12/28 01:44:11;;;;;;;1.93;1.20;;;17.50;51.60;;;;;;5074230;28;20575;-24
2021/12/28 01:46:38;;;;;;;1.80;1.07;;;17.50;51.60;;;;;;5059056;28;20191;-23
2021/12/28 01:49:06;;;;;;;1.67;1.10;;;17.50;51.60;;;;;;5060397;28;20188;-25
2021/12/28 01:51:35;;;;;;;1.53;1.10;;;17.50;51.70;;;;;;5058432;28;20265;-24
2021/12/28 01:54:03;;;;;;;1.30;1.00;;;17.40;51.70;;;;;;5061608;28;20676;-22
2021/12/28 01:56:40;;;;;;;1.33;0.90;;;17.40;51.70;;;;;;5060095;28;20191;-24
2021/12/28 01:59:07;;;;;;;1.27;0.93;;;17.40;51.90;;;;;;5059964;28;20205;-25
2021/12/28 02:01:33;;;;;;;2.53;1.60;;;17.40;51.90;;;;;;5059953;28;20228;-24
2021/12/28 02:03:59;;;;;;;1.40;1.10;;;17.40;51.90;;;;;;5057721;28;20213;-24
2021/12/28 02:06:25;;;;;;;2.03;1.00;;;17.40;52.00;;;;;;5058800;28;20193;-22
2021/12/28 02:08:54;;;;;;;1.60;1.10;;;17.40;52.40;;;;;;5058410;28;20465;-24
2021/12/28 02:11:21;;;;;;;1.43;1.10;;;17.30;52.10;;;;;;5056196;28;20200;-24
2021/12/28 02:13:47;;;;;;;1.30;1.00;;;17.30;52.10;;;;;;5060230;28;20245;-23
2021/12/28 02:16:13;;;;;;;1.40;1.07;;;17.30;52.20;;;;;;5059986;28;20665;-23
2021/12/28 02:18:39;;;;;;;1.53;1.07;;;17.30;52.20;;;;;;5059363;28;20288;-24
2021/12/28 02:21:06;;;;;;;1.10;1.00;;;17.30;52.20;;;;;;5059383;28;20261;-23
2021/12/28 02:23:32;;;;;;;1.80;1.27;;;17.30;52.30;;;;;;5058666;28;20200;-23
2021/12/28 02:25:58;;;;;;;1.50;1.07;;;17.30;52.40;;;;;;5057710;28;20188;-21
2021/12/28 02:28:24;;;;;;;1.97;1.10;;;17.20;52.30;;;;;;5055514;28;20265;-25
2021/12/28 02:30:57;;;;;;;1.90;1.40;;;17.30;52.50;;;;;;5055524;28;20180;-24
2021/12/28 02:33:23;;;;;;;1.93;1.10;;;17.20;52.50;;;;;;5055231;28;20223;-23
2021/12/28 02:35:50;;;;;;;2.50;1.07;;;17.20;52.50;;;;;;5056239;28;20238;-21
2021/12/28 02:38:15;;;;;;;1.97;1.30;;;17.20;52.60;;;;;;5057113;28;20199;-24
2021/12/28 02:40:43;;;;;;;1.27;1.17;;;17.20;52.60;;;;;;5056884;28;20193;-22
2021/12/28 02:43:11;;;;;;;1.77;1.20;;;17.20;52.70;;;;;;5054830;28;20256;-25
2021/12/28 02:45:45;;;;;;;1.30;1.00;;;17.20;52.70;;;;;;5055598;28;20202;-22
2021/12/28 02:48:11;;;;;;;2.63;1.20;;;17.20;52.80;;;;;;5056244;28;20604;-25
2021/12/28 02:50:43;;;;;;;1.33;1.03;;;17.10;52.80;;;;;;5053473;28;20200;-22
2021/12/28 02:53:10;;;;;;;1.70;1.17;;;17.10;52.80;;;;;;5053067;28;20517;-22
2021/12/28 02:55:39;;;;;;;2.10;1.10;;;17.10;52.80;;;;;;5054343;28;20216;-23
2021/12/28 02:58:07;;;;;;;2.40;1.00;;;17.10;52.90;;;;;;5055639;28;20232;-24
2021/12/28 03:00:35;;;;;;;1.57;1.10;;;17.10;52.90;;;;;;5054520;28;20210;-23
2021/12/28 03:03:08;;;;;;;1.93;1.30;;;17.10;53.00;;;;;;5054330;28;20304;-24
2021/12/28 03:05:35;;;;;;;2.83;1.10;;;17.10;53.00;;;;;;5055946;28;20204;-27
2021/12/28 03:08:01;;;;;;;1.27;1.07;;;17.10;53.00;;;;;;5054363;28;20561;-23
2021/12/28 03:10:27;;;;;;;1.50;1.20;;;17.00;53.00;;;;;;5054953;28;20254;-25
2021/12/28 03:12:52;;;;;;;1.80;1.10;;;17.00;53.00;;;;;;5053466;28;20183;-24
2021/12/28 03:15:19;;;;;;;1.93;1.20;;;17.00;53.10;;;;;;5054851;28;20211;-24
2021/12/28 03:17:44;;;;;;;2.50;1.20;;;17.00;53.20;;;;;;5070434;28;20279;-23
2021/12/28 03:20:14;;;;;;;3.07;1.07;;;17.00;53.20;;;;;;5055209;28;20303;-23
2021/12/28 03:22:40;;;;;;;1.37;1.07;;;17.00;53.20;;;;;;5056137;28;20193;-22
2021/12/28 03:25:07;;;;;;;2.07;1.20;;;17.00;53.20;;;;;;5055911;28;20466;-23
2021/12/28 03:27:33;;;;;;;3.33;1.20;;;17.00;53.30;;;;;;5055106;28;20192;-24
2021/12/28 03:29:59;;;;;;;2.43;1.30;;;17.00;53.40;;;;;;5055879;28;20257;-22
2021/12/28 03:32:25;;;;;;;3.03;1.30;;;16.90;53.30;;;;;;5054484;28;20250;-23
2021/12/28 03:34:50;;;;;;;1.80;1.20;;;16.90;53.40;;;;;;5054933;28;20239;-23
2021/12/28 03:37:16;;;;;;;2.40;1.37;;;16.90;53.40;;;;;;5053983;28;20492;-23
2021/12/28 03:39:42;;;;;;;3.50;1.20;;;16.90;53.50;;;;;;5054400;28;20188;-23
2021/12/28 03:42:08;;;;;;;2.70;1.30;;;16.90;53.90;;;;;;5055485;28;20190;-24
2021/12/28 03:44:35;;;;;;;2.47;1.40;;;16.90;53.60;;;;;;5055493;28;20192;-24
2021/12/28 03:47:02;;;;;;;3.43;1.40;;;16.80;53.60;;;;;;5054807;28;20254;-22
2021/12/28 03:49:28;;;;;;;2.33;1.10;;;16.80;53.70;;;;;;5056834;28;20188;-22
2021/12/28 03:51:54;;;;;;;2.97;1.30;;;16.80;53.70;;;;;;5056276;28;20196;-24
2021/12/28 03:54:20;;;;;;;2.73;1.43;;;16.80;53.80;;;;;;5056076;28;20221;-23
2021/12/28 03:56:46;;;;;;;3.43;1.17;;;16.80;53.80;;;;;;5054184;28;20515;-23
2021/12/28 03:59:12;;;;;;;2.53;1.30;;;16.70;53.80;;;;;;5054970;28;20604;-24
2021/12/28 04:01:37;;;;;;;3.47;1.30;;;16.70;53.80;;;;;;5070146;28;20196;-22
2021/12/28 04:04:04;;;;;;;1.70;1.00;;;17.30;53.80;;;;;;5037260;28;20265;-21
2021/12/28 04:06:30;;;;;;;2.53;1.30;;;19.60;49.70;;;;;;5054915;28;20239;-23
2021/12/28 04:08:58;;;;;;;2.37;1.43;;;20.20;47.40;;;;;;5055307;28;20273;-23
2021/12/28 04:13:50;;;;;;;2.63;1.20;;;20.70;46.10;;;;;;5055983;28;20216;-23
2021/12/28 04:16:17;;;;;;;2.27;1.20;;;20.90;45.80;;;;;;5056119;28;20197;-24
2021/12/28 04:18:43;;;;;;;2.00;1.23;;;21.30;45.40;;;;;;5054062;28;20260;-23
2021/12/28 04:21:10;;;;;;;2.87;1.43;;;21.60;44.90;;;;;;5055558;28;20287;-24
2021/12/28 04:23:38;;;;;;;2.30;1.57;;;21.70;44.60;;;;;;5053134;28;20234;-25
2021/12/28 04:26:04;;;;;;;2.73;1.30;;;21.90;44.50;;;;;;5055080;28;20183;-24
2021/12/28 04:28:30;;;;;;;2.40;1.20;;;21.90;44.70;;;;;;5054913;28;20196;-24
2021/12/28 04:30:56;;;;;;;3.33;1.53;;;22.00;44.20;;;;;;5055288;28;20529;-23
2021/12/28 04:33:22;;;;;;;2.20;1.30;;;22.10;44.10;;;;;;5054775;28;20275;-24
2021/12/28 04:35:49;;;;;;;2.93;1.17;;;22.40;43.90;;;;;;5054377;28;20296;-24
2021/12/28 04:38:14;;;;;;;4.67;1.50;;;22.50;43.70;;;;;;5054008;28;20206;-25
2021/12/28 04:40:40;;;;;;;4.03;1.40;;;22.40;43.70;;;;;;5053614;28;20178;-22
2021/12/28 04:43:07;;;;;;;3.03;1.60;;;22.40;43.70;;;;;;5053219;28;20192;-24
2021/12/28 04:45:35;;;;;;;2.00;1.20;;;22.50;43.70;;;;;;5054269;28;20178;-25
2021/12/28 04:48:01;;;;;;;2.97;1.50;;;22.70;43.60;;;;;;5053223;28;20525;-25
2021/12/28 04:50:27;;;;;;;3.23;1.37;;;23.00;43.30;;;;;;5054828;28;20661;-22
2021/12/28 04:52:53;;;;;;;2.73;1.50;;;23.10;43.10;;;;;;5054073;28;20204;-22
2021/12/28 04:55:19;;;;;;;1.50;1.10;;;22.90;43.20;;;;;;5053505;28;20282;-24
2021/12/28 04:57:45;;;;;;;2.83;1.20;;;22.90;43.20;;;;;;5053334;28;20207;-23
2021/12/28 05:00:18;;;;;;;2.33;1.30;;;23.00;43.20;;;;;;5053624;28;20222;-24
2021/12/28 05:02:44;;;;;;;4.70;1.80;;;23.10;43.20;;;;;;5057432;28;20207;-24
2021/12/28 05:05:11;;;;;;;2.47;1.20;;;23.20;43.10;;;;;;5072984;28;20195;-24
2021/12/28 05:07:37;;;;;;;3.17;1.30;;;23.10;43.20;;;;;;5057163;28;20186;-23
2021/12/28 05:10:03;;;;;;;2.60;1.40;;;23.00;43.20;;;;;;5053517;28;20203;-23
2021/12/28 05:12:29;;;;;;;2.50;1.33;;;23.00;43.30;;;;;;5056106;28;20200;-23
2021/12/28 05:14:58;;;;;;;3.27;1.70;;;22.80;43.40;;;;;;5075568;28;20245;-24
2021/12/28 05:17:25;;;;;;;2.20;1.27;;;22.50;43.70;;;;;;5077202;28;20662;-24
2021/12/28 05:19:50;;;;;;;4.83;1.40;;;22.30;44.00;;;;;;5075960;28;20216;-25
2021/12/28 05:22:16;;;;;;;4.53;1.77;;;22.00;44.20;;;;;;5059952;28;20305;-25
2021/12/28 05:24:42;;;;;;;3.27;1.73;;;21.80;44.60;;;;;;5056423;28;20195;-24
2021/12/28 05:27:07;;;;;;;3.63;1.47;;;21.60;44.90;;;;;;5056955;28;20198;-27
2021/12/28 05:29:33;;;;;;;2.63;1.40;;;21.30;45.30;;;;;;5056258;28;20206;-25
2021/12/28 05:31:59;;;;;;;2.33;1.30;;;21.10;45.60;;;;;;5056070;28;20605;-24
2021/12/28 05:34:25;;;;;;;2.30;1.30;;;20.90;45.90;;;;;;5055830;28;20248;-23
2021/12/28 05:36:50;;;;;;;2.70;1.23;;;20.70;46.20;;;;;;5055885;28;20234;-22
2021/12/28 05:39:16;;;;;;;3.77;1.60;;;20.50;46.50;;;;;;5056068;28;20174;-23
2021/12/28 05:41:42;;;;;;;2.20;1.43;;;20.30;46.80;;;;;;5056334;28;20472;-25
2021/12/28 05:44:09;;;;;;;2.13;1.23;;;20.10;47.20;;;;;;5055292;28;20199;-25
2021/12/28 05:46:35;;;;;;;3.07;1.27;;;19.90;47.60;;;;;;5055698;28;20603;-23
2021/12/28 05:49:01;;;;;;;3.60;1.40;;;19.90;48.00;;;;;;5055951;28;20209;-24
2021/12/28 05:51:26;;;;;;;2.13;1.30;;;20.10;47.90;;;;;;5054865;28;20197;-24
2021/12/28 05:53:52;;;;;;;3.03;1.90;;;20.40;47.70;;;;;;5055373;28;20502;-23
2021/12/28 05:56:18;;;;;;;2.60;1.37;;;21.20;46.80;;;;;;5055688;28;20206;-25
2021/12/28 05:58:44;;;;;;;2.27;1.40;;;22.20;45.50;;;;;;5056697;28;20211;-25
2021/12/28 06:01:09;;;;;;;2.40;1.10;;;23.20;44.00;;;;;;5055839;28;20268;-26
2021/12/28 06:03:35;;;;;;;3.37;1.17;;;23.50;43.20;;;;;;5056196;28;20270;-24
2021/12/28 06:06:01;;;;;;;3.43;1.50;;;23.30;43.10;;;;;;5058689;28;20420;-24
2021/12/28 06:08:27;;;;;;;3.40;1.30;;;23.00;43.30;;;;;;5058840;28;20177;-22
2021/12/28 06:10:53;;;;;;;3.27;1.40;;;22.90;43.50;;;;;;5059832;28;20195;-23
2021/12/28 06:13:18;;;;;;;2.87;1.50;;;22.90;43.50;;;;;;5057907;28;20223;-25
2021/12/28 06:15:44;;;;;;;2.50;1.23;;;23.00;43.60;;;;;;5058236;28;20196;-22
2021/12/28 06:18:10;;;;;;;1.90;1.23;;;23.00;43.50;;;;;;5059030;28;20196;-24
2021/12/28 06:20:35;;;;;;;3.33;1.50;;;23.00;43.50;;;;;;5059055;28;20234;-24
2021/12/28 06:23:01;;;;;;;4.07;1.47;;;23.10;43.50;;;;;;5059202;28;20226;-24
2021/12/28 06:25:27;;;;;;;2.70;1.47;;;23.00;43.50;;;;;;5059360;28;20648;-24
2021/12/28 06:27:52;;;;;;;3.17;1.37;;;22.80;43.70;;;;;;5058491;28;20508;-24
2021/12/28 06:30:18;;;;;;;2.63;1.30;;;22.60;43.80;;;;;;5058501;28;20198;-23
2021/12/28 06:32:44;;;;;;;3.03;1.20;;;22.30;44.50;;;;;;5058846;28;20209;-24
2021/12/28 06:35:11;;;;;;;2.63;1.43;;;22.30;44.30;;;;;;5057461;28;20653;-24
2021/12/28 06:37:37;;;;;;;2.47;1.23;;;22.20;44.90;;;;;;5058198;28;20237;-23
2021/12/28 06:40:04;;;;;;;3.43;1.27;;;22.00;44.60;;;;;;5058065;28;20270;-25
2021/12/28 06:42:32;;;;;;;2.67;1.20;;;21.80;44.80;;;;;;5057927;28;20224;-24
2021/12/28 06:44:57;;;;;;;2.47;1.30;;;21.50;45.20;;;;;;5058463;28;20212;-25
2021/12/28 06:47:23;;;;;;;3.60;1.37;;;21.40;45.50;;;;;;5059315;28;20184;-22
2021/12/28 06:49:49;;;;;;;2.87;1.20;;;21.10;45.80;;;;;;5058047;28;20194;-24
2021/12/28 06:52:15;;;;;;;2.13;1.10;;;20.90;46.10;;;;;;5057746;28;20496;-22
2021/12/28 06:54:41;;;;;;;1.77;1.10;;;20.70;46.40;;;;;;5057671;28;20248;-25
2021/12/28 06:57:09;;;;;;;2.47;1.20;;;20.50;46.80;;;;;;5057345;28;20203;-25
2021/12/28 06:59:43;;;;;;;2.33;1.20;;;20.40;47.10;;;;;;5057958;28;20203;-23
2021/12/28 07:02:17;;;;;;;1.90;1.10;;;20.50;47.20;;;;;;5057551;28;20254;-24
2021/12/28 07:04:43;;;;;;;2.17;1.20;;;20.60;47.00;;;;;;5057802;28;20522;-23
2021/12/28 07:07:10;;;;;;;1.70;1.17;;;20.80;46.90;;;;;;5057348;28;20237;-24
2021/12/28 07:09:35;;;;;;;2.10;1.10;;;21.20;46.50;;;;;;5057483;28;20206;-23
2021/12/28 07:12:05;;;;;;;3.37;1.30;;;21.70;45.80;;;;;;5057918;28;20179;-22
2021/12/28 07:14:30;;;;;;;1.77;1.10;;;22.20;45.10;;;;;;5056423;28;20321;-23
2021/12/28 07:16:58;;;;;;;1.90;1.30;;;22.50;44.60;;;;;;5058421;28;20269;-24
2021/12/28 07:19:24;;;;;;;1.93;1.17;;;22.80;44.10;;;;;;5057005;28;20213;-26
2021/12/28 07:21:52;;;;;;;1.77;1.10;;;23.10;43.70;;;;;;5058430;28;20699;-25
2021/12/28 07:24:18;;;;;;;2.40;1.30;;;23.30;43.50;;;;;;5058049;28;20725;-22
2021/12/28 07:26:44;;;;;;;2.17;1.10;;;23.40;43.40;;;;;;5056584;28;20196;-24
2021/12/28 07:29:10;;;;;;;2.17;1.10;;;23.60;43.00;;;;;;5057744;28;20273;-22
2021/12/28 07:31:39;;;;;;;1.93;1.20;;;23.60;42.80;;;;;;5057190;28;20727;-23
2021/12/28 07:34:05;;;;;;;1.97;1.20;;;23.40;42.90;;;;;;5057868;28;20212;-26
2021/12/28 07:36:31;;;;;;;2.03;1.20;;;23.30;43.10;;;;;;5057045;28;20207;-24
2021/12/28 07:38:56;;;;;;;1.97;1.20;;;23.10;43.20;;;;;;5057393;28;20290;-23
2021/12/28 07:41:27;;;;;;;1.67;1.07;;;23.10;43.50;;;;;;5057169;28;20210;-24
2021/12/28 07:43:53;;;;;;;1.43;1.07;;;23.10;43.40;;;;;;5056751;28;20266;-24
2021/12/28 07:46:19;;;;;;;2.33;1.00;;;23.10;43.30;;;;;;5057524;28;20207;-23
2021/12/28 07:48:44;;;;;;;1.90;1.20;;;23.10;43.30;;;;;;5057449;28;20569;-25
2021/12/28 07:51:11;;;;;;;2.43;1.10;;;23.00;43.40;;;;;;5056556;28;20199;-21
2021/12/28 07:53:36;;;;;;;1.60;0.97;;;22.80;43.60;;;;;;5058846;28;20208;-24
2021/12/28 07:56:03;;;;;;;1.80;1.00;;;22.60;43.80;;;;;;5055907;28;20219;-22
2021/12/28 07:58:29;;;;;;;1.97;1.10;;;22.50;43.90;;;;;;5056718;28;20482;-23
2021/12/28 08:00:56;;;;;;;1.40;1.20;;;22.40;44.10;;;;;;5057668;28;20579;-26
2021/12/28 08:03:22;;;;;;;1.60;1.10;;;22.20;44.30;;;;;;5057504;28;20206;-25
2021/12/28 08:05:49;;;;;;;2.40;1.23;;;22.00;44.50;;;;;;5056303;28;20275;-24
2021/12/28 08:08:15;;;;;;;1.80;0.97;;;21.80;44.90;;;;;;5056777;28;20198;-26
2021/12/28 08:10:42;;;;;;;2.30;1.20;;;21.60;45.10;;;;;;5056339;28;20256;-24
2021/12/28 08:13:07;;;;;;;2.10;1.30;;;21.50;45.60;;;;;;5055998;28;20246;-25
2021/12/28 08:15:33;;;;;;;1.87;1.00;;;21.50;45.40;;;;;;5056508;28;20204;-23
2021/12/28 08:18:02;;;;;;;1.83;1.00;;;21.40;45.50;;;;;;5056217;28;20216;-24
2021/12/28 08:20:29;;;;;;;1.17;0.87;;;21.40;45.60;;;;;;5056347;28;20237;-23
2021/12/28 08:22:56;;;;;;;1.30;1.07;;;21.50;45.50;;;;;;5056010;28;20670;-24
2021/12/28 08:25:23;;;;;;;1.30;1.10;;;21.80;45.30;;;;;;5057541;28;20200;-24
2021/12/28 08:27:49;;;;;;;1.97;1.10;;;21.90;45.00;;;;;;5055440;28;20201;-26
2021/12/28 08:30:16;;;;;;;1.63;0.97;;;22.00;44.90;;;;;;5055689;28;20208;-24
2021/12/28 08:32:42;;;;;;;1.73;1.10;;;22.30;44.70;;;;;;5055791;28;20747;-24
2021/12/28 08:35:09;;;;;;;2.00;0.93;;;22.40;44.40;;;;;;5055523;28;20226;-26
2021/12/28 08:37:35;;;;;;;1.33;0.97;;;22.70;44.10;;;;;;5056811;28;20284;-23
2021/12/28 08:40:01;;;;;;;1.80;1.10;;;23.10;43.70;;;;;;5056506;28;20200;-24
2021/12/28 08:42:27;;;;;;;1.00;0.90;;;23.40;43.30;;;;;;5056002;28;20548;-22
2021/12/28 08:44:53;;;;;;;1.47;0.97;;;23.50;43.10;;;;;;5056375;28;20639;-25
2021/12/28 08:47:22;;;;;;;2.50;1.00;;;23.60;42.90;;;;;;5057195;28;20207;-23
2021/12/28 08:49:48;;;;;;;1.50;1.00;;;23.60;42.80;;;;;;5056604;28;20191;-24
2021/12/28 08:52:14;;;;;;;1.63;1.10;;;23.70;42.80;;;;;;5050813;28;20589;-22
2021/12/28 08:54:39;;;;;;;2.27;1.17;;;23.40;43.00;;;;;;5050482;28;20318;-24
2021/12/28 08:57:05;;;;;;;1.33;0.90;;;23.20;43.30;;;;;;5065726;28;20207;-25
2021/12/28 08:59:30;;;;;;;1.50;1.07;;;23.00;43.50;;;;;;5065689;28;20286;-23
2021/12/28 09:01:56;;;;;;;1.20;0.80;;;22.90;43.90;;;;;;5068028;28;20196;-25
2021/12/28 09:04:22;;;;;;;1.80;1.20;;;22.80;44.10;;;;;;5066090;28;20192;-25
2021/12/28 09:06:49;;;;;;;1.73;1.00;;;22.60;44.30;;;;;;5050820;28;20191;-24
2021/12/28 09:09:15;;;;;;;1.47;1.03;;;22.50;44.60;;;;;;5050631;28;20714;-23
2021/12/28 09:11:42;;;;;;;1.40;1.00;;;22.20;45.00;;;;;;5050937;28;20257;-25
2021/12/28 09:14:08;;;;;;;2.13;1.00;;;22.00;45.20;;;;;;5049590;28;20215;-23
2021/12/28 09:16:34;;;;;;;2.33;1.10;;;21.80;45.50;;;;;;5049474;28;20421;-26
2021/12/28 09:19:00;;;;;;;1.37;1.10;;;21.70;45.80;;;;;;5049382;28;20279;-24
2021/12/28 09:21:26;;;;;;;3.47;1.10;;;21.70;45.90;;;;;;5050304;28;20227;-24
2021/12/28 09:23:51;;;;;;;3.13;1.43;;;21.50;46.40;;;;;;5050193;28;20276;-25
2021/12/28 09:26:17;;;;;;;2.30;1.20;;;21.40;46.80;;;;;;5051109;28;20195;-27
2021/12/28 09:28:43;;;;;;;2.93;1.40;;;21.30;47.10;;;;;;5066290;28;20176;-24
2021/12/28 09:31:09;;;;;;;8.53;1.63;;;21.60;46.90;;;;;;5048741;28;20480;-23
2021/12/28 09:33:34;;;;;;;5.87;1.50;;;21.90;46.80;;;;;;5050153;28;20215;-23
2021/12/28 09:36:01;;;;;;;8.00;1.83;;;22.30;46.50;;;;;;5050590;28;20230;-26
2021/12/28 09:38:27;;;;;;;7.20;1.50;;;22.60;46.10;;;;;;5049516;28;20191;-23
2021/12/28 09:40:54;;;;;;;9.20;1.67;;;23.10;45.60;;;;;;5050763;28;20200;-24
2021/12/28 09:43:20;;;;;;;8.13;1.47;;;23.60;44.90;;;;;;5051698;28;20607;-25
2021/12/28 09:45:46;;;;;;;3.77;1.30;;;23.90;44.40;;;;;;5052956;28;20200;-22
2021/12/28 09:48:12;;;;;;;6.43;1.60;;;23.90;44.30;;;;;;5053323;28;20713;-23
2021/12/28 09:50:39;;;;;;;4.23;1.50;;;23.80;44.20;;;;;;5052203;28;20257;-25
2021/12/28 09:53:06;;;;;;;6.23;1.30;;;24.00;44.00;;;;;;5056076;28;20300;-23
2021/12/28 09:55:32;;;;;;;4.83;1.33;;;23.90;43.90;;;;;;5054144;28;20246;-22
2021/12/28 09:57:58;;;;;;;6.47;1.50;;;24.10;43.80;;;;;;5053090;28;20180;-22
2021/12/28 10:00:24;;;;;;;6.30;1.50;;;24.10;43.90;;;;;;5053725;28;21114;-24
2021/12/28 10:02:50;;;;;;;6.37;1.57;;;24.00;43.90;;;;;;5067983;28;20587;-26
2021/12/28 10:05:21;;;;;;;4.70;1.33;;;24.10;44.00;;;;;;5050056;28;20202;-22
2021/12/28 10:07:56;;;;;;;4.03;1.30;;;24.00;44.20;;;;;;5053321;28;20615;-23
2021/12/28 10:10:24;;;;;;;7.93;1.70;;;24.00;44.30;;;;;;5049377;28;20289;-23
2021/12/28 10:12:53;;;;;;;4.33;1.20;;;23.80;44.50;;;;;;5052015;28;20482;-24
2021/12/28 10:15:25;;;;;;;3.37;1.20;;;23.60;44.80;;;;;;5051388;28;20620;-25
2021/12/28 10:17:55;;;;;;;3.17;1.10;;;23.40;44.90;;;;;;5052276;28;20591;-24
2021/12/28 10:20:26;;;;;;;5.70;1.50;;;23.30;45.20;;;;;;5052487;28;20598;-24
2021/12/28 10:22:58;;;;;;;7.00;1.50;;;23.20;45.30;;;;;;5052317;28;20223;-22
2021/12/28 10:25:29;;;;;;;2.33;1.10;;;23.00;45.60;;;;;;5052014;28;20485;-23
2021/12/28 10:27:59;;;;;;;2.20;1.10;;;22.80;45.80;;;;;;5050404;28;20576;-23
2021/12/28 10:30:26;;;;;;;5.87;1.40;;;22.60;46.10;;;;;;5050104;28;20192;-23
2021/12/28 10:32:57;;;;;;;2.70;1.27;;;22.50;46.30;;;;;;5051817;28;20616;-22
2021/12/28 10:35:25;;;;;;;5.63;1.20;;;22.30;46.60;;;;;;5052338;28;20685;-24
2021/12/28 10:37:54;;;;;;;3.30;1.10;;;22.10;46.90;;;;;;5050441;28;20419;-24
2021/12/28 10:40:27;;;;;;;6.00;1.20;;;22.00;47.20;;;;;;5053293;28;20683;-22
2021/12/28 10:42:57;;;;;;;3.63;1.30;;;21.90;47.30;;;;;;5050205;28;20495;-27
2021/12/28 10:45:25;;;;;;;2.50;1.20;;;21.80;47.60;;;;;;5051321;28;20556;-24
2021/12/28 10:47:52;;;;;;;3.50;1.00;;;21.60;47.90;;;;;;5050252;28;20287;-24
2021/12/28 10:50:23;;;;;;;3.27;1.10;;;21.50;48.10;;;;;;5050413;28;20193;-24
2021/12/28 10:53:00;;;;;;;4.47;0.97;;;21.50;48.20;;;;;;5049644;28;20207;-27
2021/12/28 10:55:27;;;;;;;3.43;0.93;;;21.50;48.20;;;;;;5049604;28;20502;-21
2021/12/28 10:57:53;;;;;;;3.40;1.10;;;21.60;48.10;;;;;;5050739;28;20199;-23
2021/12/28 11:00:25;;;;;;;3.20;0.90;;;21.70;48.00;;;;;;5052014;28;20205;-21
2021/12/28 11:03:17;;;;;;;2.13;1.10;;;21.80;47.90;;;;;;5051791;28;20496;-24
2021/12/28 11:05:44;;;;;;;2.87;1.30;;;21.90;47.80;;;;;;5056161;28;20538;-24
2021/12/28 11:08:11;;;;;;;2.93;1.03;;;22.00;47.80;;;;;;5048323;28;20294;-24
2021/12/28 11:10:58;;;;;;;2.23;1.07;;;22.10;47.60;;;;;;5049963;28;20464;-24
2021/12/28 11:13:28;;;;;;;1.77;0.83;;;22.30;47.50;;;;;;5049856;28;20196;-22
2021/12/28 11:15:55;;;;;;;1.53;0.77;;;22.50;47.20;;;;;;5051909;28;20483;-27
2021/12/28 11:18:30;;;;;;;3.00;0.80;;;22.90;46.90;;;;;;5050470;28;20242;-24
2021/12/28 11:20:58;;;;;;;4.93;1.10;;;23.10;46.80;;;;;;5051380;28;20670;-24
2021/12/28 11:23:27;;;;;;;1.40;0.80;;;23.00;46.30;;;;;;5051206;28;20222;-24
2021/12/28 11:26:27;;;;;;;1.93;1.00;;;23.10;46.20;;;;;;5050813;28;20321;-23
2021/12/28 11:29:05;;;;;;;2.77;0.73;;;23.10;46.10;;;;;;5018032;28;20200;-24
2021/12/28 11:31:38;;;;;;;2.40;0.90;;;23.20;46.00;;;;;;5049813;28;20184;-24
2021/12/28 11:34:29;;;;;;;0.83;0.80;;;23.20;45.90;;;;;;5049344;28;20237;-22
2021/12/28 11:36:56;;;;;;;3.90;0.90;;;23.10;46.10;;;;;;5049192;28;20450;-23
2021/12/28 11:39:31;;;;;;;2.10;0.87;;;22.90;46.20;;;;;;5049002;28;20175;-22
2021/12/28 11:41:58;;;;;;;1.20;0.80;;;22.70;46.40;;;;;;5052958;28;20298;-24
2021/12/28 11:44:25;;;;;;;0.80;0.60;;;22.60;46.60;;;;;;5051639;28;20183;-22
2021/12/28 11:46:53;;;;;;;2.33;1.00;;;22.50;46.70;;;;;;5052044;28;20188;-22
2021/12/28 11:49:25;;;;;;;3.30;1.00;;;22.50;46.70;;;;;;5050862;28;20244;-26
2021/12/28 11:51:52;;;;;;;2.07;0.80;;;22.40;46.90;;;;;;5050008;28;20196;-26
2021/12/28 11:54:23;;;;;;;2.37;0.70;;;22.00;47.20;;;;;;5047502;28;20288;-23
2021/12/28 11:56:57;;;;;;;1.50;0.80;;;21.90;47.70;;;;;;5049115;28;20209;-25
2021/12/28 11:59:24;;;;;;;1.93;0.53;;;21.70;47.80;;;;;;5047503;28;20215;-26
2021/12/28 12:01:54;;;;;;;1.17;0.60;;;21.50;48.50;;;;;;5049992;28;20176;-26
2021/12/28 12:04:32;;;;;;;0.67;0.67;;;21.20;49.20;;;;;;5050804;28;20199;-22
2021/12/28 12:07:14;;;;;;;1.27;0.70;;;21.00;49.70;;;;;;5049825;28;20413;-24
2021/12/28 12:09:49;;;;;;;1.00;0.87;;;20.70;50.80;;;;;;5051489;28;20638;-25
2021/12/28 12:12:18;;;;;;;2.50;0.80;;;20.40;51.60;;;;;;5050880;28;20190;-23
2021/12/28 12:14:50;;;;;;;1.43;0.70;;;20.30;52.20;;;;;;5048956;28;20457;-23
2021/12/28 12:17:31;;;;;;;2.93;0.63;;;20.40;52.30;;;;;;5049727;28;20325;-24
2021/12/28 12:19:57;;;;;;;0.80;0.63;;;20.60;52.10;;;;;;5048120;28;20213;-24
2021/12/28 12:22:32;;;;;;;1.63;0.73;;;20.80;51.80;;;;;;5049737;28;20221;-25
2021/12/28 12:25:00;;;;;;;2.00;0.70;;;21.40;50.70;;;;;;5050813;28;20191;-25
2021/12/28 12:27:58;;;;;;;1.27;0.70;;;21.90;49.50;;;;;;5051097;28;20211;-23
2021/12/28 12:30:29;;;;;;;1.77;0.70;;;22.80;48.00;;;;;;5064052;28;20444;-25
2021/12/28 12:33:10;;;;;;;0.57;0.57;;;23.30;46.90;;;;;;5048900;28;20191;-23
2021/12/28 12:35:41;;;;;;;1.80;0.60;;;23.30;46.60;;;;;;5049723;28;20446;-24
2021/12/28 12:38:16;;;;;;;4.03;0.77;;;23.40;46.30;;;;;;5049039;28;20206;-24
2021/12/28 12:41:11;;;;;;;1.20;0.70;;;23.40;46.10;;;;;;5047948;28;20205;-25
2021/12/28 12:43:39;;;;;;;0.63;0.60;;;23.50;46.00;;;;;;5064859;28;20199;-22
2021/12/28 12:46:28;;;;;;;1.03;0.63;;;23.50;45.90;;;;;;5049446;28;20253;-26
2021/12/28 12:48:53;;;;;;;1.43;0.60;;;23.50;45.90;;;;;;5050102;28;20235;-23
2021/12/28 12:51:19;;;;;;;0.60;0.60;;;23.30;46.00;;;;;;5050214;28;20230;-23
2021/12/28 12:54:02;;;;;;;2.30;0.90;;;23.20;46.10;;;;;;5051191;28;20216;-24
2021/12/28 12:56:36;;;;;;;2.70;0.80;;;23.20;46.20;;;;;;5049643;28;20227;-25